Time,TemperatureF,DewpointF,PressureIn,WindDirection,WindDirectionDegrees,WindSpeedMPH,WindSpeedGustMPH,Humidity,HourlyPrecipIn,Conditions,Clouds,dailyrainin,SolarRadiationWatts/m^2,SoftwareType,DateUTC
2013-03-09 00:01:00,28.0,27.0,-100.00,WNW,292,13.0,25.0,95,0.00,,,0.00,0.000000,,2013-03-09 08:01:00,
2013-03-09 00:11:00,28.0,27.0,-100.00,WNW,292,13.0,25.0,95,0.00,,,0.00,0.000000,,2013-03-09 08:11:00,
2013-03-09 00:21:00,28.0,27.0,-100.00,WNW,292,13.0,25.0,95,0.00,,,0.00,0.000000,,2013-03-09 08:21:00,
2013-03-09 00:52:00,28.0,27.0,-100.00,NW,305,13.0,28.0,95,0.00,,,0.00,0.000000,,2013-03-09 08:52:00,
2013-03-09 01:01:00,28.0,27.0,-100.00,NW,305,13.0,28.0,95,0.00,,,0.00,0.000000,,2013-03-09 09:01:00,
2013-03-09 01:11:00,28.0,27.0,-100.00,NW,305,13.0,28.0,95,0.00,,,0.00,0.000000,,2013-03-09 09:11:00,
2013-03-09 01:21:00,28.0,27.0,-100.00,NW,305,13.0,28.0,95,0.00,,,0.00,0.000000,,2013-03-09 09:21:00,
2013-03-09 01:52:00,28.0,27.0,-100.00,WNW,300,15.0,32.0,95,0.00,,,0.00,0.000000,,2013-03-09 09:52:00,
2013-03-09 02:01:00,28.0,27.0,-100.00,WNW,300,15.0,32.0,95,0.00,,,0.00,0.000000,,2013-03-09 10:01:00,
2013-03-09 02:11:00,28.0,27.0,-100.00,WNW,300,15.0,32.0,95,0.00,,,0.00,0.000000,,2013-03-09 10:11:00,
2013-03-09 02:21:00,28.0,27.0,-100.00,WNW,300,15.0,32.0,95,0.00,,,0.00,0.000000,,2013-03-09 10:21:00,
2013-03-09 02:52:00,28.0,27.0,-100.00,NW,310,18.0,27.0,95,0.00,,,0.00,0.000000,,2013-03-09 10:52:00,
2013-03-09 03:01:00,28.0,27.0,-100.00,NW,310,18.0,27.0,95,0.00,,,0.00,0.000000,,2013-03-09 11:01:00,
2013-03-09 03:11:00,28.0,27.0,-100.00,NW,310,18.0,27.0,95,0.00,,,0.00,0.000000,,2013-03-09 11:11:00,
2013-03-09 03:21:00,28.0,27.0,-100.00,NW,310,18.0,27.0,95,0.00,,,0.00,0.000000,,2013-03-09 11:21:00,
2013-03-09 03:52:00,28.0,27.0,-100.00,WNW,285,12.0,28.0,95,0.00,,,0.00,0.000000,,2013-03-09 11:52:00,
2013-03-09 04:01:00,28.0,27.0,-100.00,WNW,285,12.0,28.0,95,0.00,,,0.00,0.000000,,2013-03-09 12:01:00,
2013-03-09 04:11:00,28.0,27.0,-100.00,WNW,285,12.0,28.0,95,0.00,,,0.00,0.000000,,2013-03-09 12:11:00,
2013-03-09 04:21:00,28.0,27.0,-100.00,WNW,285,12.0,28.0,95,0.00,,,0.00,0.000000,,2013-03-09 12:21:00,
2013-03-09 04:52:00,28.0,27.0,-100.00,NW,312,11.0,22.0,95,0.00,,,-99.99,0.000000,,2013-03-09 12:52:00,
2013-03-09 05:02:00,28.0,27.0,-100.00,NW,312,11.0,22.0,95,0.00,,,-99.99,0.000000,,2013-03-09 13:02:00,
2013-03-09 05:11:00,28.0,27.0,-100.00,NW,312,11.0,22.0,95,0.00,,,-99.99,0.000000,,2013-03-09 13:11:00,
2013-03-09 05:21:00,28.0,27.0,-100.00,NW,312,11.0,22.0,95,0.00,,,-99.99,0.000000,,2013-03-09 13:21:00,
2013-03-09 05:52:00,28.0,27.0,-100.00,NW,310,11.0,16.0,95,0.00,,,0.00,0.000000,,2013-03-09 13:52:00,
2013-03-09 06:01:00,28.0,27.0,-100.00,NW,310,11.0,16.0,95,0.00,,,0.00,0.000000,,2013-03-09 14:01:00,
2013-03-09 06:11:00,28.0,27.0,-100.00,NW,310,11.0,16.0,95,0.00,,,0.00,0.000000,,2013-03-09 14:11:00,
2013-03-09 06:21:00,28.0,27.0,-100.00,NW,310,11.0,16.0,95,0.00,,,0.00,0.000000,,2013-03-09 14:21:00,
2013-03-09 06:52:00,28.0,27.0,-100.00,NW,321,11.0,15.0,95,0.00,,,0.00,4.000000,,2013-03-09 14:52:00,
2013-03-09 07:01:00,28.0,27.0,-100.00,NW,321,11.0,15.0,95,0.00,,,0.00,4.000000,,2013-03-09 15:01:00,
2013-03-09 07:11:00,28.0,27.0,-100.00,NW,321,11.0,15.0,95,0.00,,,0.00,4.000000,,2013-03-09 15:11:00,
2013-03-09 07:22:00,28.0,27.0,-100.00,NW,321,11.0,15.0,95,0.00,,,0.00,4.000000,,2013-03-09 15:22:00,
2013-03-09 07:52:00,29.0,28.0,-100.00,NW,312,10.0,14.0,95,0.00,,,0.00,159.000000,,2013-03-09 15:52:00,
2013-03-09 08:01:00,29.0,28.0,-100.00,NW,312,10.0,14.0,95,0.00,,,0.00,159.000000,,2013-03-09 16:01:00,
2013-03-09 08:11:00,29.0,28.0,-100.00,NW,312,10.0,14.0,95,0.00,,,0.00,159.000000,,2013-03-09 16:11:00,
2013-03-09 08:21:00,29.0,28.0,-100.00,NW,312,10.0,14.0,95,0.00,,,0.00,159.000000,,2013-03-09 16:21:00,
2013-03-09 08:52:00,30.0,29.0,-100.00,NW,313,10.0,14.0,95,0.00,,,0.00,389.000000,,2013-03-09 16:52:00,
2013-03-09 09:01:00,30.0,29.0,-100.00,NW,313,10.0,14.0,95,0.00,,,0.00,389.000000,,2013-03-09 17:01:00,
2013-03-09 09:11:00,30.0,29.0,-100.00,NW,313,10.0,14.0,95,0.00,,,0.00,389.000000,,2013-03-09 17:11:00,
2013-03-09 09:22:00,30.0,29.0,-100.00,NW,313,10.0,14.0,95,0.00,,,0.00,389.000000,,2013-03-09 17:22:00,
2013-03-09 09:52:00,30.0,29.0,-100.00,NW,320,11.0,14.0,95,0.01,,,0.01,513.000000,,2013-03-09 17:52:00,
2013-03-09 10:01:00,30.0,29.0,-100.00,NW,320,11.0,14.0,95,0.01,,,0.01,513.000000,,2013-03-09 18:01:00,
2013-03-09 10:11:00,30.0,29.0,-100.00,NW,320,11.0,14.0,95,0.01,,,0.01,513.000000,,2013-03-09 18:11:00,
2013-03-09 10:21:00,30.0,29.0,-100.00,NW,320,11.0,14.0,95,0.01,,,0.01,513.000000,,2013-03-09 18:21:00,
2013-03-09 10:52:00,31.0,30.0,-100.00,NW,324,9.0,14.0,95,0.01,,,0.02,755.000000,,2013-03-09 18:52:00,
2013-03-09 11:01:00,31.0,30.0,-100.00,NW,324,9.0,14.0,95,0.01,,,0.02,755.000000,,2013-03-09 19:01:00,
2013-03-09 11:11:00,31.0,30.0,-100.00,NW,324,9.0,14.0,95,0.01,,,0.02,755.000000,,2013-03-09 19:11:00,
2013-03-09 11:21:00,31.0,30.0,-100.00,NW,324,9.0,14.0,95,0.01,,,0.02,755.000000,,2013-03-09 19:21:00,
2013-03-09 11:52:00,33.0,32.0,-100.00,NW,326,17.0,23.0,95,0.02,,,0.04,1031.000000,,2013-03-09 19:52:00,
2013-03-09 12:01:00,33.0,32.0,-100.00,NW,326,17.0,23.0,95,0.02,,,0.04,1031.000000,,2013-03-09 20:01:00,
2013-03-09 12:11:00,33.0,32.0,-100.00,NW,326,17.0,23.0,95,0.02,,,0.04,1031.000000,,2013-03-09 20:11:00,
2013-03-09 12:21:00,33.0,32.0,-100.00,NW,326,17.0,23.0,95,0.02,,,0.04,1031.000000,,2013-03-09 20:21:00,
2013-03-09 12:52:00,33.0,31.0,-100.00,NNW,328,17.0,24.0,94,0.05,,,0.09,976.000000,,2013-03-09 20:52:00,
2013-03-09 13:01:00,33.0,31.0,-100.00,NNW,328,17.0,24.0,94,0.05,,,0.09,976.000000,,2013-03-09 21:01:00,
2013-03-09 13:11:00,33.0,31.0,-100.00,NNW,328,17.0,24.0,94,0.05,,,0.09,976.000000,,2013-03-09 21:11:00,
2013-03-09 13:21:00,33.0,31.0,-100.00,NNW,328,17.0,24.0,94,0.05,,,0.09,976.000000,,2013-03-09 21:21:00,
2013-03-09 13:52:00,34.0,32.0,-100.00,NNW,334,16.0,25.0,92,0.08,,,0.17,1042.000000,,2013-03-09 21:52:00,
2013-03-09 14:01:00,34.0,32.0,-100.00,NNW,334,16.0,25.0,92,0.08,,,0.17,1042.000000,,2013-03-09 22:01:00,
2013-03-09 14:11:00,34.0,32.0,-100.00,NNW,334,16.0,25.0,92,0.08,,,0.17,1042.000000,,2013-03-09 22:11:00,
2013-03-09 14:21:00,34.0,32.0,-100.00,NNW,334,16.0,25.0,92,0.08,,,0.17,1042.000000,,2013-03-09 22:21:00,
2013-03-09 14:52:00,35.0,30.0,-100.00,NNW,327,17.0,24.0,81,0.05,,,0.22,942.000000,,2013-03-09 22:52:00,
2013-03-09 15:01:00,35.0,30.0,-100.00,NNW,327,17.0,24.0,81,0.05,,,0.22,942.000000,,2013-03-09 23:01:00,
2013-03-09 15:11:00,35.0,30.0,-100.00,NNW,327,17.0,24.0,81,0.05,,,0.22,942.000000,,2013-03-09 23:11:00,
2013-03-09 15:21:00,35.0,30.0,-100.00,NNW,327,17.0,24.0,81,0.05,,,0.22,942.000000,,2013-03-09 23:21:00,
2013-03-09 15:52:00,38.0,31.0,-100.00,NNW,329,17.0,23.0,77,0.01,,,0.23,768.000000,,2013-03-09 23:52:00,
2013-03-09 16:01:00,38.0,31.0,-100.00,NNW,329,17.0,23.0,77,0.01,,,0.23,768.000000,,2013-03-10 00:01:00,
2013-03-09 16:11:00,38.0,31.0,-100.00,NNW,329,17.0,23.0,77,0.01,,,0.23,768.000000,,2013-03-10 00:11:00,
2013-03-09 16:22:00,38.0,31.0,-100.00,NNW,329,17.0,23.0,77,0.01,,,0.23,768.000000,,2013-03-10 00:22:00,
2013-03-09 16:52:00,36.0,29.0,-100.00,NNW,331,15.0,22.0,76,0.00,,,0.23,473.000000,,2013-03-10 00:52:00,
2013-03-09 17:01:00,36.0,29.0,-100.00,NNW,331,15.0,22.0,76,0.00,,,0.23,473.000000,,2013-03-10 01:01:00,
2013-03-09 17:11:00,36.0,29.0,-100.00,NNW,331,15.0,22.0,76,0.00,,,0.23,473.000000,,2013-03-10 01:11:00,
2013-03-09 17:21:00,36.0,29.0,-100.00,NNW,331,15.0,22.0,76,0.00,,,0.23,473.000000,,2013-03-10 01:21:00,
2013-03-09 17:52:00,36.0,22.0,-100.00,NNW,347,12.0,20.0,57,0.00,,,-99.99,166.000000,,2013-03-10 01:52:00,
2013-03-09 18:01:00,36.0,22.0,-100.00,NNW,347,12.0,20.0,57,0.00,,,-99.99,166.000000,,2013-03-10 02:01:00,
2013-03-09 18:11:00,36.0,22.0,-100.00,NNW,347,12.0,20.0,57,0.00,,,-99.99,166.000000,,2013-03-10 02:11:00,
2013-03-09 18:22:00,36.0,22.0,-100.00,NNW,347,12.0,20.0,57,0.00,,,-99.99,166.000000,,2013-03-10 02:22:00,
2013-03-09 18:52:00,36.0,28.0,-100.00,NNW,338,12.0,17.0,71,0.00,,,-99.99,10.000000,,2013-03-10 02:52:00,
2013-03-09 19:01:00,36.0,28.0,-100.00,NNW,338,12.0,17.0,71,0.00,,,-99.99,10.000000,,2013-03-10 03:01:00,
2013-03-09 19:11:00,36.0,28.0,-100.00,NNW,338,12.0,17.0,71,0.00,,,-99.99,10.000000,,2013-03-10 03:11:00,
2013-03-09 19:21:00,36.0,28.0,-100.00,NNW,338,12.0,17.0,71,0.00,,,-99.99,10.000000,,2013-03-10 03:21:00,
2013-03-09 19:52:00,34.0,27.0,-100.00,SE,144,9.0,21.0,76,0.00,,,0.23,0.000000,,2013-03-10 03:52:00,
2013-03-09 20:01:00,34.0,27.0,-100.00,SE,144,9.0,21.0,76,0.00,,,0.23,0.000000,,2013-03-10 04:01:00,
2013-03-09 20:11:00,34.0,27.0,-100.00,SE,144,9.0,21.0,76,0.00,,,0.23,0.000000,,2013-03-10 04:11:00,
2013-03-09 20:21:00,34.0,27.0,-100.00,SE,144,9.0,21.0,76,0.00,,,0.23,0.000000,,2013-03-10 04:21:00,
2013-03-09 21:11:00,39.0,18.0,-100.00,NNE,29,14.0,28.0,43,0.00,,,0.23,0.000000,,2013-03-10 05:11:00,
2013-03-09 21:52:00,36.0,15.0,-100.00,ENE,64,11.0,26.0,41,-99.99,,,0.23,0.000000,,2013-03-10 05:52:00,
2013-03-09 22:01:00,36.0,15.0,-100.00,ENE,64,11.0,26.0,41,-99.99,,,0.23,0.000000,,2013-03-10 06:01:00,
2013-03-09 22:11:00,36.0,15.0,-100.00,ENE,64,11.0,26.0,41,-99.99,,,0.23,0.000000,,2013-03-10 06:11:00,
2013-03-09 22:21:00,36.0,15.0,-100.00,ENE,64,11.0,26.0,41,-99.99,,,0.23,0.000000,,2013-03-10 06:21:00,
2013-03-09 22:52:00,38.0,9.0,-100.00,ENE,61,3.0,15.0,29,0.00,,,0.23,0.000000,,2013-03-10 06:52:00,
2013-03-09 23:01:00,38.0,9.0,-100.00,ENE,61,3.0,15.0,29,0.00,,,0.23,0.000000,,2013-03-10 07:01:00,
2013-03-09 23:11:00,38.0,9.0,-100.00,ENE,61,3.0,15.0,29,0.00,,,0.23,0.000000,,2013-03-10 07:11:00,
2013-03-09 23:21:00,38.0,9.0,-100.00,ENE,61,3.0,15.0,29,0.00,,,0.23,0.000000,,2013-03-10 07:21:00,
2013-03-09 23:52:00,38.0,3.0,-100.00,NE,43,6.0,18.0,22,0.00,,,0.23,0.000000,,2013-03-10 07:52:00,